createdAt,value
2022-09-23T00:00:44.961Z,9.23
2022-09-23T00:03:12.170Z,8.70
2022-09-23T00:05:38.956Z,9.93
2022-09-23T00:08:08.015Z,10.30
2022-09-23T00:10:37.492Z,9.80
2022-09-23T00:13:05.783Z,10.52
2022-09-23T00:15:37.142Z,9.77
2022-09-23T00:18:03.778Z,9.23
2022-09-23T00:20:30.175Z,9.32
2022-09-23T00:22:57.707Z,10.45
2022-09-23T00:25:25.104Z,10.55
2022-09-23T00:27:51.503Z,10.90
2022-09-23T00:30:18.467Z,10.57
2022-09-23T00:32:44.898Z,11.70
2022-09-23T00:35:11.409Z,12.38
2022-09-23T00:37:37.818Z,10.27
2022-09-23T00:40:04.717Z,8.70
2022-09-23T00:42:31.255Z,8.02
2022-09-23T00:44:59.279Z,8.43
2022-09-23T00:47:50.438Z,10.25
2022-09-23T00:50:35.065Z,11.73
2022-09-23T00:53:05.462Z,11.33
2022-09-23T00:55:39.429Z,11.90
2022-09-23T00:58:08.755Z,12.18
2022-09-23T01:00:35.607Z,12.30
2022-09-23T01:03:04.202Z,12.02
2022-09-23T01:05:31.998Z,10.80
2022-09-23T01:08:00.817Z,11.32
2022-09-23T01:10:35.593Z,10.40
2022-09-23T01:13:24.291Z,9.57
2022-09-23T01:16:05.759Z,9.82
2022-09-23T01:18:43.506Z,9.67
2022-09-23T01:21:23.876Z,9.95
2022-09-23T01:24:11.518Z,10.18
2022-09-23T01:27:02.732Z,9.77
2022-09-23T01:29:48.009Z,11.25
2022-09-23T01:32:33.155Z,10.20
2022-09-23T01:35:11.737Z,11.27
2022-09-23T01:37:52.124Z,10.88
2022-09-23T01:40:34.158Z,10.65
2022-09-23T01:43:13.186Z,11.70
2022-09-23T01:45:46.986Z,10.90
2022-09-23T01:48:26.709Z,10.45
2022-09-23T01:51:00.420Z,11.63
2022-09-23T01:53:37.853Z,9.88
2022-09-23T01:56:20.969Z,9.55
2022-09-23T01:59:09.307Z,10.73
2022-09-23T02:02:00.997Z,10.45
2022-09-23T02:04:39.618Z,9.70
2022-09-23T02:07:15.147Z,10.05
2022-09-23T02:09:48.892Z,10.60
2022-09-23T02:12:20.191Z,11.00
2022-09-23T02:15:02.577Z,9.05
2022-09-23T02:17:48.327Z,9.82
2022-09-23T02:20:20.836Z,10.02
2022-09-23T02:23:10.241Z,11.60
2022-09-23T02:26:02.959Z,10.47
2022-09-23T02:28:43.298Z,10.90
2022-09-23T02:31:19.972Z,11.23
2022-09-23T02:33:55.314Z,10.80
2022-09-23T02:36:34.615Z,11.45
2022-09-23T02:39:06.002Z,10.87
2022-09-23T02:41:39.897Z,10.48
2022-09-23T02:44:12.836Z,13.05
2022-09-23T02:46:39.759Z,10.55
2022-09-23T02:49:12.584Z,10.23
2022-09-23T02:51:40.397Z,9.73
2022-09-23T02:54:10.628Z,9.65
2022-09-23T02:56:37.486Z,11.45
2022-09-23T02:59:06.041Z,11.02
2022-09-23T03:01:47.635Z,10.80
2022-09-23T03:04:35.054Z,11.27
2022-09-23T03:07:06.313Z,11.20
2022-09-23T03:09:39.999Z,11.40
2022-09-23T03:12:25.183Z,12.57
2022-09-23T03:15:01.976Z,11.05
2022-09-23T03:17:54.721Z,11.97
2022-09-23T03:20:32.086Z,12.63
2022-09-23T03:23:02.871Z,12.57
2022-09-23T03:25:34.838Z,11.73
2022-09-23T03:28:03.699Z,12.90
2022-09-23T03:30:35.498Z,12.00
2022-09-23T03:33:05.608Z,11.60
2022-09-23T03:35:55.643Z,12.05
2022-09-23T03:38:25.930Z,11.25
2022-09-23T03:40:55.820Z,11.90
2022-09-23T03:43:22.394Z,12.73
2022-09-23T03:45:48.939Z,12.88
2022-09-23T03:48:15.675Z,14.18
2022-09-23T03:50:42.095Z,12.40
2022-09-23T03:53:08.530Z,13.02
2022-09-23T03:55:34.985Z,13.90
2022-09-23T03:58:04.789Z,12.73
2022-09-23T04:00:31.278Z,13.85
2022-09-23T04:02:57.762Z,11.60
2022-09-23T04:05:24.174Z,12.68
2022-09-23T04:07:51.082Z,12.63
2022-09-23T04:10:17.588Z,12.70
2022-09-23T04:12:43.978Z,14.20
2022-09-23T04:15:10.680Z,12.77
2022-09-23T04:17:37.163Z,13.15
2022-09-23T04:20:04.050Z,13.30
2022-09-23T04:22:31.018Z,11.98
2022-09-23T04:24:57.458Z,14.50
2022-09-23T04:27:24.023Z,13.85
2022-09-23T04:29:50.828Z,14.80
2022-09-23T04:32:17.249Z,13.67
2022-09-23T04:34:43.666Z,14.07
2022-09-23T04:37:10.059Z,14.07
2022-09-23T04:39:36.497Z,14.55
2022-09-23T04:42:04.039Z,15.07
2022-09-23T04:44:30.559Z,15.23
2022-09-23T04:46:57.054Z,14.85
2022-09-23T04:49:23.565Z,15.70
2022-09-23T04:51:49.990Z,14.88
2022-09-23T04:54:16.392Z,15.10
2022-09-23T04:56:42.866Z,13.23
2022-09-23T04:59:09.298Z,13.95
2022-09-23T05:01:36.473Z,13.63
2022-09-23T05:04:06.566Z,13.77
2022-09-23T05:06:34.940Z,14.38
2022-09-23T05:09:05.458Z,14.97
2022-09-23T05:11:32.330Z,12.98
2022-09-23T05:13:58.983Z,14.07
2022-09-23T05:16:26.775Z,12.57
2022-09-23T05:18:53.894Z,14.55
2022-09-23T05:21:23.340Z,15.73
2022-09-23T05:23:55.405Z,14.90
2022-09-23T05:26:25.336Z,14.38
2022-09-23T05:28:52.665Z,13.40
2022-09-23T05:31:21.530Z,13.60
2022-09-23T05:33:57.220Z,14.23
2022-09-23T05:36:25.150Z,13.88
2022-09-23T05:38:51.845Z,13.77
2022-09-23T05:41:20.813Z,14.73
2022-09-23T05:43:47.479Z,14.40
2022-09-23T05:46:19.786Z,14.63
2022-09-23T05:48:47.540Z,13.85
2022-09-23T05:51:20.100Z,14.60
2022-09-23T05:53:47.673Z,13.70
2022-09-23T05:56:19.264Z,15.10
2022-09-23T05:58:45.722Z,14.00
2022-09-23T06:01:14.987Z,15.00
2022-09-23T06:03:41.654Z,14.38
2022-09-23T06:06:14.533Z,14.75
2022-09-23T06:08:42.002Z,14.75
2022-09-23T06:11:08.765Z,13.70
2022-09-23T06:13:39.299Z,13.52
2022-09-23T06:16:08.025Z,15.88
2022-09-23T06:18:35.646Z,14.55
2022-09-23T06:21:02.811Z,14.73
2022-09-23T06:23:30.298Z,14.47
2022-09-23T06:26:04.385Z,13.73
2022-09-23T06:28:32.983Z,15.60
2022-09-23T06:31:01.083Z,13.77
2022-09-23T06:33:36.260Z,14.30
2022-09-23T06:36:05.977Z,15.07
2022-09-23T06:38:34.068Z,14.15
2022-09-23T06:41:01.484Z,15.07
2022-09-23T06:43:28.010Z,13.15
2022-09-23T06:45:54.988Z,14.63
2022-09-23T06:48:22.668Z,14.37
2022-09-23T06:50:49.385Z,13.82
2022-09-23T06:53:17.058Z,13.65
2022-09-23T06:55:44.311Z,13.82
2022-09-23T06:58:10.902Z,14.82
2022-09-23T07:00:37.763Z,14.13
2022-09-23T07:03:08.504Z,13.32
2022-09-23T07:05:35.790Z,14.55
2022-09-23T07:08:03.278Z,14.52
2022-09-23T07:10:30.873Z,15.07
2022-09-23T07:13:01.502Z,14.03
2022-09-23T07:15:27.988Z,13.75
2022-09-23T07:17:54.391Z,14.30
2022-09-23T07:20:20.835Z,13.63
2022-09-23T07:22:52.132Z,13.25
2022-09-23T07:25:19.834Z,14.17
2022-09-23T07:27:48.111Z,14.05
2022-09-23T07:30:23.154Z,13.23
2022-09-23T07:32:52.124Z,13.32
2022-09-23T07:35:19.476Z,13.30
2022-09-23T07:37:46.359Z,13.20
2022-09-23T07:40:12.911Z,14.15
2022-09-23T07:42:40.823Z,13.85
2022-09-23T07:45:09.017Z,12.15
2022-09-23T07:47:35.912Z,14.20
2022-09-23T07:50:02.410Z,13.33
2022-09-23T07:52:28.827Z,13.07
2022-09-23T07:54:55.269Z,14.07
2022-09-23T07:57:21.804Z,13.82
2022-09-23T07:59:48.255Z,13.18
2022-09-23T08:02:16.402Z,13.60
2022-09-23T08:04:42.946Z,13.85
2022-09-23T08:07:12.921Z,14.27
2022-09-23T08:09:42.099Z,12.57
2022-09-23T08:12:15.771Z,14.20
2022-09-23T08:14:43.072Z,13.00
2022-09-23T08:17:11.282Z,13.77
2022-09-23T08:19:37.704Z,14.38
2022-09-23T08:22:04.202Z,12.30
2022-09-23T08:24:32.207Z,13.93
2022-09-23T08:26:59.041Z,13.80
2022-09-23T08:29:26.310Z,13.45
2022-09-23T08:31:53.564Z,15.18
2022-09-23T08:34:21.642Z,12.77
2022-09-23T08:36:48.228Z,12.18
2022-09-23T08:39:20.190Z,13.73
2022-09-23T08:42:06.750Z,14.18
2022-09-23T08:44:46.072Z,13.90
2022-09-23T08:47:12.485Z,13.32
2022-09-23T08:49:45.573Z,13.00
2022-09-23T08:52:23.362Z,13.33
2022-09-23T08:54:55.152Z,12.23
2022-09-23T08:58:02.409Z,12.77
2022-09-23T09:00:45.017Z,12.27
2022-09-23T09:03:24.787Z,14.25
2022-09-23T09:05:54.493Z,12.60
2022-09-23T09:08:31.612Z,12.45
2022-09-23T09:10:58.990Z,14.30
2022-09-23T09:13:30.522Z,12.75
2022-09-23T09:16:23.909Z,13.15
2022-09-23T09:19:07.355Z,12.70
2022-09-23T09:21:41.079Z,12.73
2022-09-23T09:24:17.678Z,12.57
2022-09-23T09:26:44.111Z,12.18
2022-09-23T09:29:39.885Z,12.73
2022-09-23T09:32:22.978Z,12.20
2022-09-23T09:34:54.681Z,11.50
2022-09-23T09:37:35.777Z,12.35
2022-09-23T09:40:03.255Z,12.50
2022-09-23T09:42:40.197Z,12.48
2022-09-23T09:45:24.171Z,13.10
2022-09-23T09:48:11.587Z,12.43
2022-09-23T09:50:45.965Z,11.65
2022-09-23T09:53:16.637Z,11.63
2022-09-23T09:55:43.098Z,12.10
2022-09-23T09:58:16.232Z,11.33
2022-09-23T10:00:45.682Z,10.38
2022-09-23T10:03:14.905Z,10.63
2022-09-23T10:05:44.894Z,10.52
2022-09-23T10:08:32.325Z,10.30
2022-09-23T10:10:58.700Z,9.70
2022-09-23T10:13:27.248Z,9.40
2022-09-23T10:15:54.976Z,9.68
2022-09-23T10:18:35.833Z,9.63
2022-09-23T10:21:13.274Z,8.95
2022-09-23T10:23:51.402Z,8.70
2022-09-23T10:26:26.087Z,8.52
2022-09-23T10:28:55.551Z,8.35
2022-09-23T10:31:32.683Z,8.68
2022-09-23T10:34:01.959Z,8.52
2022-09-23T10:36:31.363Z,8.20
2022-09-23T10:39:19.402Z,8.98
2022-09-23T10:42:18.005Z,7.63
2022-09-23T10:45:19.829Z,7.72
2022-09-23T10:47:49.033Z,8.45
2022-09-23T10:50:18.539Z,7.87
2022-09-23T10:53:07.837Z,8.10
2022-09-23T10:55:50.161Z,7.70
2022-09-23T10:58:44.281Z,7.75
2022-09-23T11:01:12.086Z,7.60
2022-09-23T11:03:58.284Z,7.73
2022-09-23T11:06:45.755Z,7.47
2022-09-23T11:09:27.391Z,7.18
2022-09-23T11:12:12.462Z,7.25
2022-09-23T11:15:12.019Z,6.38
2022-09-23T11:18:05.812Z,5.97
2022-09-23T11:20:45.392Z,6.32
2022-09-23T11:23:37.125Z,6.70
2022-09-23T11:26:22.243Z,5.97
2022-09-23T11:28:55.076Z,6.28
2022-09-23T11:31:58.770Z,7.30
2022-09-23T11:34:32.766Z,6.63
2022-09-23T11:37:25.537Z,6.70
2022-09-23T11:40:12.112Z,6.28
2022-09-23T11:42:46.851Z,6.25
2022-09-23T11:45:25.773Z,5.73
2022-09-23T11:47:57.951Z,5.93
2022-09-23T11:50:45.927Z,6.55
2022-09-23T11:53:21.121Z,5.82
2022-09-23T11:55:58.246Z,5.55
2022-09-23T12:01:34.647Z,5.75
2022-09-23T12:04:17.728Z,5.35
2022-09-23T12:06:50.076Z,5.45
2022-09-23T12:09:47.351Z,5.25
2022-09-23T12:12:41.095Z,5.30
2022-09-23T12:15:28.859Z,5.82
2022-09-23T12:18:14.036Z,5.25
2022-09-23T12:20:56.530Z,5.18
2022-09-23T12:23:52.284Z,5.22
2022-09-23T12:26:23.095Z,5.53
2022-09-23T12:28:53.136Z,5.30
2022-09-23T12:31:23.032Z,5.57
2022-09-23T12:33:52.234Z,5.70
2022-09-23T12:36:36.292Z,5.32
2022-09-23T12:39:04.803Z,4.83
2022-09-23T12:41:37.515Z,5.22
2022-09-23T12:44:23.268Z,5.85
2022-09-23T12:47:20.895Z,5.57
2022-09-23T12:49:48.487Z,5.47
2022-09-23T12:52:17.780Z,5.30
2022-09-23T12:54:45.340Z,4.88
2022-09-23T12:57:33.389Z,5.38
2022-09-23T13:00:14.271Z,4.63
2022-09-23T13:03:16.013Z,4.32
2022-09-23T13:06:05.888Z,4.47
2022-09-23T13:08:35.794Z,4.47
2022-09-23T13:11:05.325Z,4.90
2022-09-23T13:13:41.179Z,4.13
2022-09-23T13:16:12.732Z,4.43
2022-09-23T13:19:20.917Z,4.27
2022-09-23T13:21:47.323Z,4.55
2022-09-23T13:24:14.273Z,4.20
2022-09-23T13:26:46.534Z,4.45
2022-09-23T13:29:25.527Z,4.45
2022-09-23T13:31:53.368Z,4.30
2022-09-23T13:34:22.961Z,3.95
2022-09-23T13:36:49.392Z,4.10
2022-09-23T13:39:22.221Z,4.05
2022-09-23T13:41:49.089Z,4.47
2022-09-23T13:44:20.028Z,4.07
2022-09-23T13:46:52.829Z,4.13
2022-09-23T13:49:36.440Z,4.00
2022-09-23T13:52:03.980Z,4.50
2022-09-23T13:54:36.237Z,5.05
2022-09-23T13:57:03.804Z,4.97
2022-09-23T13:59:41.980Z,5.30
2022-09-23T14:02:14.070Z,5.75
2022-09-23T14:04:41.194Z,5.55
2022-09-23T14:07:10.808Z,5.28
2022-09-23T14:09:41.261Z,5.53
2022-09-23T14:12:10.274Z,6.65
2022-09-23T14:14:39.302Z,5.50
2022-09-23T14:17:07.340Z,5.85
2022-09-23T14:19:36.823Z,6.05
2022-09-23T14:22:03.744Z,5.80
2022-09-23T14:24:30.087Z,5.65
2022-09-23T14:27:01.417Z,7.40
2022-09-23T14:29:33.802Z,6.53
2022-09-23T14:32:06.723Z,6.78
2022-09-23T14:34:49.777Z,6.60
2022-09-23T14:37:40.380Z,6.70
2022-09-23T14:40:16.737Z,7.35
2022-09-23T14:42:48.061Z,7.93
2022-09-23T14:45:21.746Z,7.20
2022-09-23T14:48:04.795Z,7.03
2022-09-23T14:50:47.114Z,8.15
2022-09-23T14:53:22.851Z,7.85
2022-09-23T14:55:57.331Z,7.90
2022-09-23T14:58:28.615Z,8.18
2022-09-23T15:00:59.390Z,7.17
2022-09-23T15:03:28.370Z,7.57
2022-09-23T15:06:08.507Z,7.82
2022-09-23T15:08:35.931Z,8.18
2022-09-23T15:11:08.063Z,8.75
2022-09-23T15:13:40.394Z,7.53
2022-09-23T15:16:07.787Z,8.05
2022-09-23T15:18:41.518Z,8.35
2022-09-23T15:21:10.084Z,8.10
2022-09-23T15:23:56.502Z,8.10
2022-09-23T15:26:25.706Z,8.83
2022-09-23T15:28:55.886Z,9.13
2022-09-23T15:31:26.396Z,9.07
2022-09-23T15:33:53.105Z,8.23
2022-09-23T15:36:22.946Z,8.23
2022-09-23T15:38:49.518Z,8.27
2022-09-23T15:41:17.368Z,8.20
2022-09-23T15:43:44.535Z,9.10
2022-09-23T15:46:21.121Z,8.77
2022-09-23T15:49:15.289Z,8.77
2022-09-23T15:51:42.987Z,9.30
2022-09-23T15:54:12.381Z,9.50
2022-09-23T15:56:38.804Z,8.55
2022-09-23T15:59:06.302Z,9.15
2022-09-23T16:01:36.528Z,9.70
2022-09-23T16:04:04.456Z,9.37
2022-09-23T16:06:31.854Z,9.10
2022-09-23T16:08:58.253Z,10.52
2022-09-23T16:11:33.058Z,9.60
2022-09-23T16:14:03.282Z,8.80
2022-09-23T16:16:30.093Z,9.50
2022-09-23T16:18:56.662Z,9.00
2022-09-23T16:21:28.453Z,9.20
2022-09-23T16:23:55.256Z,8.50
2022-09-23T16:26:24.388Z,9.05
2022-09-23T16:28:53.181Z,10.20
2022-09-23T16:31:20.529Z,9.98
2022-09-23T16:33:48.661Z,10.13
2022-09-23T16:36:31.085Z,11.38
2022-09-23T16:39:03.927Z,11.38
2022-09-23T16:41:31.532Z,10.57
2022-09-23T16:44:00.778Z,11.50
2022-09-23T16:46:29.218Z,11.68
2022-09-23T16:48:57.515Z,11.65
2022-09-23T16:51:30.511Z,11.18
2022-09-23T16:53:58.787Z,12.60
2022-09-23T16:56:29.141Z,12.93
2022-09-23T16:58:56.743Z,12.63
2022-09-23T17:01:47.234Z,12.30
2022-09-23T17:04:15.784Z,12.65
2022-09-23T17:06:50.631Z,13.23
2022-09-23T17:09:19.997Z,13.30
2022-09-23T17:11:53.100Z,13.70
2022-09-23T17:14:19.530Z,14.55
2022-09-23T17:16:48.934Z,14.48
2022-09-23T17:19:15.427Z,15.90
2022-09-23T17:21:42.643Z,14.40
2022-09-23T17:24:09.844Z,14.07
2022-09-23T17:26:36.261Z,14.65
2022-09-23T17:29:02.807Z,15.65
2022-09-23T17:31:30.591Z,15.47
2022-09-23T17:33:57.263Z,14.55
2022-09-23T17:36:23.910Z,14.95
2022-09-23T17:38:53.431Z,15.40
2022-09-23T17:41:20.888Z,15.45
2022-09-23T17:43:47.859Z,14.30
2022-09-23T17:46:18.182Z,15.32
2022-09-23T17:48:45.598Z,16.10
2022-09-23T17:51:17.431Z,15.98
2022-09-23T17:53:46.484Z,16.58
2022-09-23T17:56:26.978Z,16.53
2022-09-23T17:58:54.115Z,20.45
2022-09-23T18:01:26.117Z,20.73
2022-09-23T18:03:58.356Z,21.38
2022-09-23T18:06:27.123Z,20.67
2022-09-23T18:08:55.814Z,18.50
2022-09-23T18:11:24.571Z,16.98
2022-09-23T18:13:55.192Z,18.52
2022-09-23T18:16:25.201Z,18.88
2022-09-23T18:18:56.639Z,20.85
2022-09-23T18:21:24.823Z,20.03
2022-09-23T18:23:51.757Z,18.85
2022-09-23T18:26:21.308Z,17.30
2022-09-23T18:28:48.261Z,17.42
2022-09-23T18:31:17.062Z,17.17
2022-09-23T18:33:43.612Z,16.70
2022-09-23T18:36:10.100Z,15.93
2022-09-23T18:38:36.562Z,16.38
2022-09-23T18:41:03.324Z,15.88
2022-09-23T18:43:37.279Z,16.98
2022-09-23T18:46:11.744Z,16.53
2022-09-23T18:48:56.883Z,18.65
2022-09-23T18:51:26.027Z,16.58
2022-09-23T18:53:57.579Z,18.33
2022-09-23T18:56:41.998Z,18.40
2022-09-23T18:59:12.789Z,16.87
2022-09-23T19:01:39.481Z,19.58
2022-09-23T19:04:07.101Z,19.38
2022-09-23T19:06:35.126Z,18.42
2022-09-23T19:09:01.753Z,19.10
2022-09-23T19:11:28.163Z,19.50
2022-09-23T19:13:56.425Z,20.08
2022-09-23T19:16:24.244Z,19.40
2022-09-23T19:18:51.262Z,18.98
2022-09-23T19:21:20.495Z,18.90
2022-09-23T19:23:52.948Z,19.87
2022-09-23T19:26:22.863Z,19.52
2022-09-23T19:28:53.866Z,18.23
2022-09-23T19:31:23.367Z,18.88
2022-09-23T19:33:56.360Z,18.77
2022-09-23T19:36:28.356Z,17.97
2022-09-23T19:38:56.623Z,17.55
2022-09-23T19:41:24.285Z,20.02
2022-09-23T19:43:52.780Z,19.50
2022-09-23T19:46:19.460Z,19.98
2022-09-23T19:48:46.831Z,20.17
2022-09-23T19:51:13.236Z,21.27
2022-09-23T19:53:42.617Z,21.02
2022-09-23T19:56:09.272Z,20.75
2022-09-23T19:58:35.698Z,21.55
2022-09-23T20:01:07.327Z,22.10
2022-09-23T20:03:33.827Z,21.92
2022-09-23T20:06:00.289Z,19.92
2022-09-23T20:08:29.363Z,20.75
2022-09-23T20:10:55.789Z,20.67
2022-09-23T20:13:22.357Z,21.00
2022-09-23T20:15:49.159Z,21.67
2022-09-23T20:18:15.607Z,20.70
2022-09-23T20:20:42.382Z,19.85
2022-09-23T20:23:08.822Z,21.20
2022-09-23T20:25:53.957Z,19.63
2022-09-23T20:28:21.242Z,21.00
2022-09-23T20:30:47.890Z,19.33
2022-09-23T20:33:15.137Z,19.55
2022-09-23T20:35:43.951Z,20.02
2022-09-23T20:38:10.568Z,21.10
2022-09-23T20:40:38.536Z,21.13
2022-09-23T20:43:05.166Z,21.45
2022-09-23T20:45:31.837Z,21.40
2022-09-23T20:48:00.146Z,21.67
2022-09-23T20:50:26.704Z,22.03
2022-09-23T20:52:53.249Z,21.20
2022-09-23T20:55:19.667Z,20.15
2022-09-23T20:57:48.593Z,20.08
2022-09-23T21:00:15.330Z,20.15
2022-09-23T21:02:43.550Z,20.30
2022-09-23T21:05:10.492Z,20.50
2022-09-23T21:07:37.498Z,20.67
2022-09-23T21:10:06.877Z,20.52
2022-09-23T21:12:33.298Z,20.98
2022-09-23T21:14:59.708Z,21.07
2022-09-23T21:17:26.852Z,21.67
2022-09-23T21:19:53.335Z,20.95
2022-09-23T21:22:19.789Z,21.25
2022-09-23T21:25:25.923Z,19.95
2022-09-23T21:27:37.022Z,21.43
2022-09-23T21:30:04.548Z,22.73
2022-09-23T21:32:31.228Z,21.10
2022-09-23T21:34:57.642Z,21.17
2022-09-23T21:37:25.426Z,21.83
2022-09-23T21:40:10.521Z,20.63
2022-09-23T21:42:37.180Z,21.08
2022-09-23T21:45:04.226Z,22.55
2022-09-23T21:47:31.433Z,22.15
2022-09-23T21:49:57.858Z,22.38
2022-09-23T21:52:24.250Z,22.80
2022-09-23T21:54:50.665Z,21.52
2022-09-23T21:57:17.058Z,24.00
2022-09-23T21:59:43.475Z,23.52
2022-09-23T22:02:09.871Z,22.42
2022-09-23T22:04:36.341Z,22.50
2022-09-23T22:07:02.785Z,24.55
2022-09-23T22:09:29.204Z,24.25
2022-09-23T22:12:12.692Z,24.30
2022-09-23T22:14:39.863Z,24.90
2022-09-23T22:17:08.009Z,26.33
2022-09-23T22:19:39.374Z,26.92
2022-09-23T22:22:13.122Z,26.08
2022-09-23T22:24:43.733Z,26.30
2022-09-23T22:27:12.151Z,25.27
2022-09-23T22:29:57.221Z,27.47
2022-09-23T22:32:43.476Z,27.08
2022-09-23T22:35:13.428Z,26.85
2022-09-23T22:37:39.901Z,27.05
2022-09-23T22:40:09.520Z,28.40
2022-09-23T22:42:36.498Z,27.93
2022-09-23T22:45:05.727Z,29.88
2022-09-23T22:47:37.641Z,27.38
2022-09-23T22:50:05.804Z,28.67
2022-09-23T22:52:33.358Z,29.83
2022-09-23T22:55:00.300Z,28.80
2022-09-23T22:57:26.842Z,28.73
2022-09-23T22:59:53.277Z,30.73
2022-09-23T23:02:21.822Z,31.90
2022-09-23T23:04:48.936Z,31.48
2022-09-23T23:07:20.252Z,29.17
2022-09-23T23:09:51.003Z,28.52
2022-09-23T23:12:20.040Z,29.85
2022-09-23T23:14:47.762Z,29.95
2022-09-23T23:17:14.559Z,30.50
2022-09-23T23:19:41.007Z,28.97
2022-09-23T23:22:07.455Z,27.25
2022-09-23T23:24:33.942Z,25.77
2022-09-23T23:27:00.388Z,26.35
2022-09-23T23:29:27.768Z,26.20
2022-09-23T23:31:54.322Z,26.33
2022-09-23T23:34:21.478Z,25.58
2022-09-23T23:36:54.443Z,24.83
2022-09-23T23:39:23.540Z,25.02
2022-09-23T23:41:54.978Z,24.63
2022-09-23T23:44:23.687Z,22.77
2022-09-23T23:46:50.447Z,23.13
2022-09-23T23:49:16.970Z,22.90
2022-09-23T23:51:43.469Z,22.20
2022-09-23T23:54:11.583Z,22.70
2022-09-23T23:56:38.036Z,23.33
2022-09-23T23:59:04.487Z,22.42
